Melbourne Airport Weather Forecast Tullamarine (YMML – MEL)

METAR

TTF METAR YMML 230130Z 35017KT CAVOK 33/05 Q1010 RMK RF00.0////./ FM0300 36012KT CAVOK

TAF

TAF YMML 222313Z 2300/2406 36018KT CAVOK FM230300 36012KT 9999 -SHRA SCT090 FM231000 36010KT CAVOK FM232200 36018KT CAVOK FM240100 35010KT CAVOK RMK T 29 32 31 27 Q 1011 1009 1008 1009

QNH 

1010

Temperature & Dew Point

25° DP5